Terminal Aerodrome Forecast
Issued by NWS

Current Version | Previous Version | Text Only | Print | Product List | Glossary On
Versions: 1 2 3 4 5 6 7 8 9 10 11 12 13 14 15 16 17 18 19 20 21 22 23 24 25 26 27 28
000
FTUS46 KLOX 280438 AAA
TAFOXR
TAF AMD
KOXR 280438Z 2805/2824 27006KT P6SM BKN009
     FM281400 VRB03KT 5SM BR OVC012
     FM281800 25006KT 6SM HZ OVC015
     FM282000 26008KT P6SM OVC018
     FM282200 27010KT P6SM SCT020=

USA.gov is the U.S. government's official web portal to all federal, state and local government web resources and services.